Time;durP1;ratioP1;P1;durP2;ratioP2;P2;SDS_P1;SDS_P2;PMS_P1;PMS_P2;Temp;Humidity;BMP_temperature;BMP_pressure;BME280_temperature;BME280_humidity;BME280_pressure;Samples;Min_cycle;Max_cycle;Signal;HPM_P1;HPM_P2
2023/02/22 00:00:48;;;;;;;32.17;9.50;;;3.60;99.90;;;;;;4376638;28;655439;-74
2023/02/22 00:03:37;;;;;;;32.80;10.70;;;3.60;99.90;;;;;;4377491;28;655229;-74
2023/02/22 00:06:25;;;;;;;31.70;9.97;;;3.60;99.90;;;;;;4412296;28;655162;-73
2023/02/22 00:09:19;;;;;;;36.00;10.03;;;3.50;99.90;;;;;;4412724;28;654770;-74
2023/02/22 00:12:09;;;;;;;38.90;9.77;;;3.50;99.90;;;;;;4384368;28;655594;-74
2023/02/22 00:14:56;;;;;;;38.50;10.03;;;3.40;1.00;;;;;;4390228;28;654784;-73
2023/02/22 00:17:43;;;;;;;32.63;10.25;;;3.40;1.00;;;;;;4418516;28;654911;-74
2023/02/22 00:20:30;;;;;;;36.03;10.40;;;3.40;1.00;;;;;;4389282;28;654697;-74
2023/02/22 00:23:18;;;;;;;35.90;10.23;;;3.30;1.00;;;;;;4396793;28;654602;-73
2023/02/22 00:26:08;;;;;;;47.97;11.03;;;3.40;1.00;;;;;;4393258;28;654705;-74
2023/02/22 00:28:57;;;;;;;36.70;10.73;;;3.40;1.00;;;;;;4381751;28;654696;-73
2023/02/22 00:31:44;;;;;;;36.10;9.97;;;3.50;1.00;;;;;;4416116;28;654369;-73
2023/02/22 00:34:31;;;;;;;42.20;11.63;;;3.40;1.00;;;;;;4373001;28;653437;-74
2023/02/22 00:37:19;;;;;;;34.67;10.90;;;3.50;1.00;;;;;;4414274;28;655318;-74
2023/02/22 00:40:08;;;;;;;33.63;10.17;;;3.50;1.00;;;;;;4374582;28;654784;-74
2023/02/22 00:42:55;;;;;;;39.70;11.10;;;3.60;1.00;;;;;;4395186;28;654502;-74
2023/02/22 00:45:44;;;;;;;41.53;10.90;;;3.60;1.00;;;;;;4416514;28;655294;-74
2023/02/22 00:48:31;;;;;;;43.00;10.50;;;3.60;99.90;;;;;;4394157;28;654791;-74
2023/02/22 00:51:19;;;;;;;38.20;10.87;;;3.70;99.90;;;;;;4426136;28;655399;-74
2023/02/22 00:54:06;;;;;;;40.57;10.10;;;3.60;99.90;;;;;;4384192;28;655815;-74
2023/02/22 00:56:53;;;;;;;43.37;10.83;;;3.70;99.90;;;;;;4424252;28;656438;-73
2023/02/22 00:59:40;;;;;;;39.60;10.50;;;3.70;99.90;;;;;;4395039;28;655579;-76
2023/02/22 01:02:29;;;;;;;33.97;10.30;;;3.70;99.90;;;;;;4421375;28;656703;-76
2023/02/22 01:05:17;;;;;;;36.67;10.48;;;3.70;99.90;;;;;;4385870;28;655445;-76
2023/02/22 01:08:05;;;;;;;33.60;10.97;;;3.80;99.90;;;;;;4411672;28;655814;-76
2023/02/22 01:10:53;;;;;;;39.83;10.37;;;3.70;99.90;;;;;;4387150;28;656309;-76
2023/02/22 01:13:40;;;;;;;37.93;10.47;;;3.70;99.90;;;;;;4409433;28;655625;-76
2023/02/22 01:16:27;;;;;;;41.20;9.90;;;3.80;99.90;;;;;;4418841;28;655440;-77
2023/02/22 01:19:16;;;;;;;38.93;9.90;;;3.80;99.90;;;;;;4413788;28;654450;-75
2023/02/22 01:22:04;;;;;;;36.27;9.80;;;3.80;99.90;;;;;;4395725;28;654893;-75
2023/02/22 01:24:51;;;;;;;35.23;9.30;;;3.80;85.50;;;;;;4389971;28;654379;-75
2023/02/22 01:27:39;;;;;;;33.47;9.20;;;3.70;80.40;;;;;;4423862;28;655691;-74
2023/02/22 01:30:28;;;;;;;37.93;9.50;;;3.70;97.20;;;;;;4391476;28;654745;-75
2023/02/22 01:33:15;;;;;;;33.35;9.23;;;3.70;97.90;;;;;;4372685;28;654353;-75
2023/02/22 01:36:10;;;;;;;36.67;8.73;;;3.70;96.90;;;;;;4401408;28;655432;-75
2023/02/22 01:38:57;;;;;;;38.53;8.70;;;3.70;97.70;;;;;;4380215;28;655117;-74
2023/02/22 01:41:44;;;;;;;27.57;8.07;;;3.60;99.90;;;;;;4413501;28;654509;-75
2023/02/22 01:44:33;;;;;;;29.40;7.73;;;3.70;99.90;;;;;;4377565;28;654539;-74
2023/02/22 01:47:20;;;;;;;42.47;9.23;;;3.70;99.90;;;;;;4405476;28;654665;-75
2023/02/22 01:50:09;;;;;;;28.40;8.10;;;3.70;54.90;;;;;;4416586;28;655030;-74
2023/02/22 01:52:58;;;;;;;34.88;8.20;;;3.70;18.50;;;;;;4395701;28;654726;-75
2023/02/22 01:55:45;;;;;;;39.93;8.83;;;3.70;25.80;;;;;;4405007;28;654499;-75
2023/02/22 01:58:34;;;;;;;32.53;8.50;;;3.70;38.40;;;;;;4426948;28;655811;-75
2023/02/22 02:01:23;;;;;;;29.23;8.37;;;3.70;48.10;;;;;;4393048;28;654528;-74
2023/02/22 02:04:12;;;;;;;32.90;7.77;;;3.70;44.30;;;;;;4397383;28;654123;-74
2023/02/22 02:07:01;;;;;;;35.43;8.33;;;3.70;40.70;;;;;;4404658;28;654321;-75
2023/02/22 02:09:52;;;;;;;30.37;8.53;;;3.60;36.60;;;;;;4390044;28;654894;-75
2023/02/22 02:12:40;;;;;;;24.17;8.17;;;3.60;42.60;;;;;;4373746;28;654803;-75
2023/02/22 02:15:29;;;;;;;30.90;8.07;;;3.50;99.90;;;;;;4386083;28;654882;-75
2023/02/22 02:18:16;;;;;;;38.50;8.60;;;3.40;99.90;;;;;;4392561;28;654450;-75
2023/02/22 02:21:34;;;;;;;24.77;7.87;;;3.40;99.90;;;;;;4409144;28;654885;-75
2023/02/22 02:24:59;;;;;;;38.90;9.07;;;3.30;99.90;;;;;;4390389;28;654499;-75
2023/02/22 02:27:59;;;;;;;30.93;7.80;;;3.20;99.90;;;;;;4397129;28;655092;-74
2023/02/22 02:31:27;;;;;;;40.53;9.07;;;3.10;99.90;;;;;;4381879;28;655511;-74
2023/02/22 02:34:19;;;;;;;33.20;8.63;;;3.10;99.90;;;;;;4349151;28;654445;-75
2023/02/22 02:37:09;;;;;;;39.07;9.50;;;3.00;99.90;;;;;;4344589;28;654684;-75
2023/02/22 02:39:59;;;;;;;36.27;9.23;;;3.00;99.90;;;;;;4370218;28;654290;-75
2023/02/22 02:42:55;;;;;;;40.50;9.90;;;2.90;99.90;;;;;;4397105;28;654764;-74
2023/02/22 02:45:46;;;;;;;38.73;9.97;;;2.90;99.90;;;;;;4390979;28;654302;-74
2023/02/22 02:48:34;;;;;;;34.93;9.07;;;2.80;1.00;;;;;;4392625;28;655502;-75
2023/02/22 02:51:24;;;;;;;31.40;9.03;;;2.80;1.00;;;;;;4397591;28;653252;-75
2023/02/22 02:54:11;;;;;;;34.37;9.67;;;2.70;1.00;;;;;;4379012;28;653253;-75
2023/02/22 02:56:58;;;;;;;42.50;9.63;;;2.60;1.00;;;;;;4411067;28;653983;-75
2023/02/22 02:59:46;;;;;;;32.63;9.95;;;2.60;1.00;;;;;;4378953;28;653852;-75
2023/02/22 03:02:39;;;;;;;35.20;9.60;;;2.70;1.00;;;;;;4402348;28;653711;-75
2023/02/22 03:05:38;;;;;;;41.40;11.60;;;2.70;1.00;;;;;;4359037;28;654436;-75
2023/02/22 03:08:29;;;;;;;34.93;10.33;;;2.70;99.90;;;;;;4372992;28;654925;-75
2023/02/22 03:11:18;;;;;;;36.28;10.10;;;2.70;99.90;;;;;;4380473;28;655752;-75
2023/02/22 03:14:11;;;;;;;39.73;12.03;;;2.70;99.90;;;;;;4393016;28;655700;-75
2023/02/22 03:17:01;;;;;;;37.67;11.40;;;2.70;1.00;;;;;;4382141;28;655687;-75
2023/02/22 03:19:50;;;;;;;38.40;12.13;;;2.70;1.00;;;;;;4405044;28;655440;-75
2023/02/22 03:22:42;;;;;;;36.80;11.27;;;2.70;20.60;;;;;;4385054;28;655631;-75
2023/02/22 03:25:34;;;;;;;43.37;11.53;;;2.70;99.90;;;;;;4379318;28;655683;-75
2023/02/22 03:28:22;;;;;;;40.27;12.07;;;2.80;99.90;;;;;;4377881;28;655748;-75
2023/02/22 03:31:10;;;;;;;43.53;12.37;;;2.70;99.90;;;;;;4405684;28;655303;-75
2023/02/22 03:33:59;;;;;;;45.53;12.27;;;2.80;1.00;;;;;;4368394;28;655932;-75
2023/02/22 03:36:48;;;;;;;43.60;12.53;;;2.80;1.00;;;;;;4385610;28;654802;-75
2023/02/22 03:39:36;;;;;;;47.65;13.43;;;2.80;1.00;;;;;;4384781;28;654862;-75
2023/02/22 03:42:25;;;;;;;46.20;12.73;;;2.80;15.50;;;;;;4416367;28;654746;-75
2023/02/22 03:45:14;;;;;;;42.70;12.97;;;2.80;95.70;;;;;;4404988;28;655724;-75
2023/02/22 03:48:03;;;;;;;49.23;12.67;;;2.80;1.00;;;;;;4395486;28;655437;-75
2023/02/22 03:50:50;;;;;;;41.27;12.37;;;2.80;1.00;;;;;;4401915;28;654312;-74
2023/02/22 03:53:38;;;;;;;41.00;12.47;;;2.80;30.00;;;;;;4422108;28;655314;-75
2023/02/22 03:56:34;;;;;;;40.13;12.77;;;2.80;1.00;;;;;;4390655;28;656029;-74
2023/02/22 03:59:26;;;;;;;41.17;12.73;;;2.80;1.00;;;;;;4393110;28;654998;-75
2023/02/22 04:02:13;;;;;;;40.07;12.93;;;2.80;1.00;;;;;;4378938;28;654768;-75
2023/02/22 04:05:00;;;;;;;43.92;12.98;;;2.80;99.90;;;;;;4375295;28;654485;-74
2023/02/22 04:07:48;;;;;;;37.10;11.80;;;2.80;99.90;;;;;;4414965;28;656467;-75
2023/02/22 04:10:36;;;;;;;40.50;11.53;;;2.80;1.00;;;;;;4382152;28;655551;-75
2023/02/22 04:13:24;;;;;;;45.50;12.60;;;2.80;1.00;;;;;;4398356;28;654734;-76
2023/02/22 04:16:13;;;;;;;43.03;13.13;;;2.80;99.90;;;;;;4378314;28;655297;-75
2023/02/22 04:19:00;;;;;;;36.83;12.03;;;2.80;1.00;;;;;;4391183;28;655937;-74
2023/02/22 04:21:48;;;;;;;47.63;11.73;;;2.80;99.90;;;;;;4417914;28;655015;-75
2023/02/22 04:24:35;;;;;;;46.27;11.63;;;2.80;77.80;;;;;;4408557;28;655493;-75
2023/02/22 04:27:22;;;;;;;40.60;11.67;;;2.80;99.90;;;;;;4418312;28;656202;-75
2023/02/22 04:30:11;;;;;;;37.80;11.83;;;2.80;99.90;;;;;;4412595;28;655979;-75
2023/02/22 04:33:00;;;;;;;44.10;11.85;;;2.80;99.90;;;;;;4395468;28;656535;-75
2023/02/22 04:35:47;;;;;;;36.70;10.90;;;2.80;1.00;;;;;;4377154;28;656873;-75
2023/02/22 04:38:34;;;;;;;48.70;12.57;;;2.80;1.00;;;;;;4419192;28;655619;-75
2023/02/22 04:41:21;;;;;;;48.77;11.80;;;2.80;1.00;;;;;;4399782;28;654485;-75
2023/02/22 04:44:09;;;;;;;44.40;12.47;;;2.80;99.90;;;;;;4406982;28;655541;-75
2023/02/22 04:46:56;;;;;;;46.17;11.97;;;2.80;1.00;;;;;;4367925;28;655877;-75
2023/02/22 04:49:45;;;;;;;44.85;12.35;;;2.80;1.00;;;;;;4416795;28;655556;-75
2023/02/22 04:52:32;;;;;;;45.73;11.80;;;2.90;1.00;;;;;;4392258;28;654322;-75
2023/02/22 04:55:21;;;;;;;35.50;11.00;;;2.80;1.00;;;;;;4407039;28;654187;-75
2023/02/22 04:58:08;;;;;;;43.40;11.63;;;2.90;1.00;;;;;;4401555;28;655693;-75
2023/02/22 05:00:55;;;;;;;45.08;11.95;;;2.90;1.00;;;;;;4390326;28;655143;-75
2023/02/22 05:03:42;;;;;;;38.07;11.50;;;2.90;1.00;;;;;;4417986;28;654641;-76
2023/02/22 05:06:32;;;;;;;39.30;11.67;;;2.90;1.00;;;;;;4410614;28;654452;-75
2023/02/22 05:09:19;;;;;;;40.27;12.17;;;2.80;1.00;;;;;;4394226;28;654277;-75
2023/02/22 05:12:06;;;;;;;43.30;12.10;;;2.80;99.90;;;;;;4380177;28;654233;-74
2023/02/22 05:14:54;;;;;;;45.30;11.53;;;2.80;99.90;;;;;;4406344;28;656360;-75
2023/02/22 05:17:41;;;;;;;42.77;11.43;;;2.60;99.90;;;;;;4396159;28;655895;-75
2023/02/22 05:20:29;;;;;;;33.57;11.97;;;2.70;1.00;;;;;;4401330;28;656069;-76
2023/02/22 05:23:18;;;;;;;46.37;11.93;;;2.70;99.90;;;;;;4381114;28;655491;-75
2023/02/22 05:26:06;;;;;;;46.20;12.57;;;2.70;1.00;;;;;;4396376;28;656012;-75
2023/02/22 05:28:53;;;;;;;51.23;12.00;;;2.80;99.90;;;;;;4394662;28;655106;-75
2023/02/22 05:31:41;;;;;;;37.07;11.73;;;2.80;99.90;;;;;;4380161;28;656235;-75
2023/02/22 05:34:28;;;;;;;34.83;11.47;;;2.80;99.90;;;;;;4416577;28;656279;-75
2023/02/22 05:37:15;;;;;;;39.77;11.87;;;2.70;99.90;;;;;;4397726;28;655304;-75
2023/02/22 05:40:06;;;;;;;41.33;12.23;;;2.80;99.90;;;;;;4425153;28;655753;-75
2023/02/22 05:42:53;;;;;;;37.63;11.10;;;2.80;1.00;;;;;;4385882;28;656834;-76
2023/02/22 05:45:41;;;;;;;40.23;11.20;;;2.70;1.00;;;;;;4394772;28;654404;-75
2023/02/22 05:48:28;;;;;;;37.17;11.07;;;2.70;1.00;;;;;;4413482;28;655414;-75
2023/02/22 05:51:15;;;;;;;41.33;12.13;;;2.70;99.90;;;;;;4379896;28;654689;-75
2023/02/22 05:54:02;;;;;;;42.20;12.13;;;2.80;1.00;;;;;;4421077;28;656657;-75
2023/02/22 05:56:52;;;;;;;34.40;10.20;;;2.90;1.00;;;;;;4414956;28;654465;-74
2023/02/22 05:59:39;;;;;;;38.30;10.97;;;2.70;1.00;;;;;;4423619;28;654124;-76
2023/02/22 06:02:26;;;;;;;45.13;11.53;;;2.70;99.90;;;;;;4382393;28;654826;-75
2023/02/22 06:05:13;;;;;;;37.53;10.83;;;2.80;99.90;;;;;;4422394;28;656276;-75
2023/02/22 06:08:01;;;;;;;38.27;10.47;;;2.70;1.00;;;;;;4399260;28;655752;-75
2023/02/22 06:10:48;;;;;;;47.93;11.57;;;2.80;1.00;;;;;;4428051;28;655416;-75
2023/02/22 06:13:37;;;;;;;34.00;11.67;;;2.80;1.00;;;;;;4386446;28;654602;-74
2023/02/22 06:16:24;;;;;;;44.63;13.03;;;2.80;1.00;;;;;;4390439;28;654973;-75
2023/02/22 06:19:11;;;;;;;45.03;12.43;;;2.90;1.00;;;;;;4380482;28;654285;-75
2023/02/22 06:21:58;;;;;;;44.60;12.33;;;2.80;1.00;;;;;;4417936;28;655438;-75
2023/02/22 06:24:46;;;;;;;58.40;15.20;;;2.90;1.00;;;;;;4386943;28;654178;-75
2023/02/22 06:27:33;;;;;;;55.83;14.50;;;2.80;1.00;;;;;;4412837;28;655766;-75
2023/02/22 06:30:22;;;;;;;42.40;12.90;;;2.90;1.00;;;;;;4391341;28;654386;-75
2023/02/22 06:33:09;;;;;;;52.10;13.73;;;2.90;1.00;;;;;;4404066;28;654730;-76
2023/02/22 06:35:57;;;;;;;46.20;12.00;;;3.00;1.00;;;;;;4398260;28;654955;-75
2023/02/22 06:38:44;;;;;;;60.77;13.60;;;2.90;1.00;;;;;;4412760;28;654856;-75
2023/02/22 06:41:31;;;;;;;51.60;14.33;;;3.00;1.00;;;;;;4394583;28;654927;-76
2023/02/22 06:44:18;;;;;;;37.53;12.70;;;3.00;1.00;;;;;;4413309;28;654782;-75
2023/02/22 06:47:07;;;;;;;56.83;14.13;;;3.00;1.00;;;;;;4383771;28;654492;-75
2023/02/22 06:49:54;;;;;;;41.10;12.43;;;3.00;1.00;;;;;;4402704;28;654373;-76
2023/02/22 06:52:42;;;;;;;38.07;12.10;;;3.00;1.00;;;;;;4384643;28;654474;-75
2023/02/22 06:55:30;;;;;;;45.30;13.33;;;3.10;1.00;;;;;;4414442;28;654476;-76
2023/02/22 06:58:18;;;;;;;61.07;17.07;;;3.20;1.00;;;;;;4396295;28;655425;-75
2023/02/22 07:01:06;;;;;;;60.73;16.60;;;3.20;1.00;;;;;;4398956;28;654587;-75
2023/02/22 07:03:55;;;;;;;62.63;19.60;;;3.20;1.00;;;;;;4408804;28;654775;-75
2023/02/22 07:06:45;;;;;;;76.07;24.03;;;3.30;1.00;;;;;;4394632;28;655547;-75
2023/02/22 07:09:33;;;;;;;98.40;31.37;;;3.40;1.00;;;;;;4379371;28;654611;-75
2023/02/22 07:12:20;;;;;;;69.53;21.23;;;3.50;1.00;;;;;;4392129;28;654507;-75
2023/02/22 07:15:08;;;;;;;88.17;30.97;;;3.60;1.00;;;;;;4403148;28;654850;-76
2023/02/22 07:17:55;;;;;;;112.47;39.60;;;3.60;1.00;;;;;;4402307;28;654878;-75
2023/02/22 07:20:44;;;;;;;91.37;29.47;;;3.60;1.00;;;;;;4414325;28;656521;-75
2023/02/22 07:23:31;;;;;;;93.67;30.80;;;3.70;1.00;;;;;;4401834;28;654443;-74
2023/02/22 07:26:18;;;;;;;107.47;37.73;;;3.70;99.90;;;;;;4402540;28;655506;-75
2023/02/22 07:29:06;;;;;;;103.17;37.17;;;3.80;99.90;;;;;;4395231;28;656352;-75
2023/02/22 07:31:53;;;;;;;104.97;34.90;;;3.80;99.90;;;;;;4417145;28;657486;-75
2023/02/22 07:34:41;;;;;;;109.20;34.70;;;3.90;99.90;;;;;;4381881;28;656772;-75
2023/02/22 07:37:30;;;;;;;97.30;33.70;;;4.00;99.90;;;;;;4416102;28;657595;-75
2023/02/22 07:40:18;;;;;;;98.13;34.40;;;4.10;99.90;;;;;;4376164;28;656402;-75
2023/02/22 07:43:07;;;;;;;101.70;33.63;;;4.10;99.90;;;;;;4381095;28;655928;-75
2023/02/22 07:45:56;;;;;;;106.33;35.57;;;4.20;99.90;;;;;;4396547;28;657390;-76
2023/02/22 07:48:43;;;;;;;100.97;38.03;;;4.20;68.10;;;;;;4391792;28;656922;-75
2023/02/22 07:51:30;;;;;;;96.27;35.83;;;4.30;16.90;;;;;;4393874;28;656535;-74
2023/02/22 07:54:19;;;;;;;78.30;28.77;;;4.40;1.00;;;;;;4402847;28;656431;-75
2023/02/22 07:57:06;;;;;;;84.40;28.30;;;4.40;99.90;;;;;;4401730;28;654565;-75
2023/02/22 07:59:53;;;;;;;71.47;25.10;;;4.30;1.00;;;;;;4418933;28;656311;-75
2023/02/22 08:02:41;;;;;;;70.83;26.47;;;4.40;99.90;;;;;;4398023;28;654541;-75
2023/02/22 08:05:28;;;;;;;76.30;26.30;;;4.50;1.00;;;;;;4408296;28;655781;-75
2023/02/22 08:08:16;;;;;;;80.37;29.40;;;4.50;99.90;;;;;;4396337;28;654412;-75
2023/02/22 08:11:05;;;;;;;72.00;27.87;;;4.60;1.00;;;;;;4411513;28;655906;-75
2023/02/22 08:13:52;;;;;;;67.10;25.60;;;4.70;99.90;;;;;;4376786;28;655796;-75
2023/02/22 08:16:39;;;;;;;61.70;21.83;;;4.80;1.00;;;;;;4402442;28;655936;-75
2023/02/22 08:19:26;;;;;;;52.77;16.87;;;4.90;39.70;;;;;;4400100;28;654862;-75
2023/02/22 08:22:14;;;;;;;49.00;15.20;;;5.00;1.00;;;;;;4410454;28;655761;-75
2023/02/22 08:25:01;;;;;;;31.87;10.23;;;5.10;1.00;;;;;;4404726;28;654852;-75
2023/02/22 08:27:49;;;;;;;35.33;10.03;;;5.10;99.90;;;;;;4416163;28;654842;-75
2023/02/22 08:30:38;;;;;;;37.37;13.00;;;5.20;1.00;;;;;;4380547;28;655349;-75
2023/02/22 08:33:25;;;;;;;30.03;9.53;;;5.40;1.00;;;;;;4382012;28;654801;-75
2023/02/22 08:36:12;;;;;;;34.23;10.47;;;5.40;1.00;;;;;;4414703;28;653283;-75
2023/02/22 08:39:00;;;;;;;201.10;70.27;;;5.60;1.00;;;;;;4418739;28;654467;-74
2023/02/22 08:41:47;;;;;;;70.03;24.33;;;5.60;1.00;;;;;;4417140;28;655822;-75
2023/02/22 08:44:37;;;;;;;28.13;9.60;;;5.70;1.00;;;;;;4410793;28;654759;-75
2023/02/22 08:47:24;;;;;;;27.30;5.70;;;5.80;1.00;;;;;;4420522;28;652885;-75
2023/02/22 08:50:16;;;;;;;23.60;5.50;;;5.80;1.00;;;;;;4397470;28;654297;-75
2023/02/22 08:53:04;;;;;;;19.63;5.97;;;5.90;1.00;;;;;;4387450;28;654126;-75
2023/02/22 08:55:51;;;;;;;22.17;6.00;;;6.00;1.00;;;;;;4395842;28;653221;-75
2023/02/22 08:58:38;;;;;;;25.30;6.73;;;6.10;1.00;;;;;;4419214;28;653930;-75
2023/02/22 09:01:28;;;;;;;21.75;6.55;;;6.20;1.00;;;;;;4398774;28;653244;-75
2023/02/22 09:04:15;;;;;;;14.03;4.13;;;6.20;1.00;;;;;;4410596;28;653629;-74
2023/02/22 09:07:02;;;;;;;16.97;4.07;;;6.20;1.00;;;;;;4420440;28;653575;-75
2023/02/22 09:09:50;;;;;;;18.60;3.93;;;5.90;1.00;;;;;;4398395;28;653089;-75
2023/02/22 09:12:37;;;;;;;13.63;3.57;;;5.70;1.00;;;;;;4419868;28;653468;-75
2023/02/22 09:15:25;;;;;;;22.10;4.30;;;5.60;1.00;;;;;;4410809;28;653247;-74
2023/02/22 09:18:16;;;;;;;17.87;3.90;;;5.70;1.00;;;;;;4406606;28;654384;-75
2023/02/22 09:21:04;;;;;;;12.80;3.73;;;5.60;1.00;;;;;;4380618;28;653250;-74
2023/02/22 09:23:53;;;;;;;14.07;3.50;;;5.30;1.00;;;;;;4398719;28;653946;-75
2023/02/22 09:26:41;;;;;;;10.77;2.90;;;5.40;1.00;;;;;;4391207;28;653290;-74
2023/02/22 09:29:28;;;;;;;11.60;3.17;;;5.50;1.00;;;;;;4416338;28;654277;-75
2023/02/22 09:32:17;;;;;;;14.53;3.60;;;5.50;1.00;;;;;;4389625;28;653716;-75
2023/02/22 09:35:07;;;;;;;20.67;4.30;;;5.70;1.00;;;;;;4391874;28;653639;-75
2023/02/22 09:37:55;;;;;;;24.53;3.87;;;5.70;1.00;;;;;;4398088;28;653632;-75
2023/02/22 09:40:44;;;;;;;17.50;4.73;;;5.80;1.00;;;;;;4379512;28;654383;-74
2023/02/22 09:43:36;;;;;;;19.57;4.30;;;5.90;1.00;;;;;;4393568;28;653481;-75
2023/02/22 09:46:26;;;;;;;16.70;3.47;;;5.60;99.90;;;;;;4385679;28;654004;-76
2023/02/22 09:49:19;;;;;;;13.47;4.27;;;5.50;1.00;;;;;;4391288;28;654788;-75
2023/02/22 09:52:11;;;;;;;17.93;4.63;;;5.70;1.00;;;;;;4384742;28;653665;-75
2023/02/22 09:55:05;;;;;;;12.90;4.00;;;6.10;1.00;;;;;;4396923;28;653758;-74
2023/02/22 09:57:54;;;;;;;15.27;3.80;;;6.30;1.00;;;;;;4398153;28;653184;-75
2023/02/22 10:00:42;;;;;;;11.80;2.73;;;6.30;99.90;;;;;;4395641;28;653881;-74
2023/02/22 10:03:33;;;;;;;12.60;2.93;;;6.60;99.90;;;;;;4404368;28;654690;-75
2023/02/22 10:06:21;;;;;;;11.53;2.10;;;6.50;99.90;;;;;;4358970;28;655143;-75
2023/02/22 10:09:10;;;;;;;12.30;2.43;;;6.60;99.90;;;;;;4397156;28;655267;-75
2023/02/22 10:11:59;;;;;;;12.13;2.60;;;6.80;99.90;;;;;;4391115;28;655105;-75
2023/02/22 10:15:10;;;;;;;15.10;2.73;;;6.80;99.90;;;;;;4378746;28;655609;-75
2023/02/22 10:18:03;;;;;;;14.00;2.70;;;6.90;99.90;;;;;;4367714;28;655714;-74
2023/02/22 10:20:53;;;;;;;14.10;2.50;;;6.70;99.90;;;;;;4378327;28;654845;-75
2023/02/22 10:23:44;;;;;;;13.23;2.70;;;6.40;99.90;;;;;;4390228;28;654905;-74
2023/02/22 10:26:35;;;;;;;16.03;2.83;;;6.60;99.90;;;;;;4391801;28;654813;-75
2023/02/22 10:29:27;;;;;;;14.67;3.60;;;6.60;99.90;;;;;;4400702;28;655847;-75
2023/02/22 10:32:17;;;;;;;14.47;3.40;;;6.80;99.90;;;;;;4392678;28;654480;-75
2023/02/22 10:35:07;;;;;;;11.37;3.07;;;7.00;99.90;;;;;;4395626;28;654765;-74
2023/02/22 10:37:57;;;;;;;13.40;2.70;;;6.60;99.90;;;;;;4395330;28;654781;-74
2023/02/22 10:40:45;;;;;;;12.20;2.67;;;6.40;99.90;;;;;;4382213;28;654525;-74
2023/02/22 10:43:34;;;;;;;13.20;2.73;;;6.50;99.90;;;;;;4401610;28;654652;-75
2023/02/22 10:46:21;;;;;;;15.10;3.27;;;6.40;99.90;;;;;;4382996;28;654574;-75
2023/02/22 10:49:08;;;;;;;10.13;2.83;;;6.40;99.90;;;;;;4408537;28;655486;-75
2023/02/22 10:51:59;;;;;;;12.00;3.30;;;6.30;99.90;;;;;;4391050;28;654574;-74
2023/02/22 10:54:48;;;;;;;11.50;3.20;;;6.50;99.90;;;;;;4394018;28;654714;-75
2023/02/22 10:57:36;;;;;;;17.47;3.03;;;6.40;99.90;;;;;;4396371;28;654460;-75
2023/02/22 11:00:29;;;;;;;15.17;3.33;;;6.30;99.90;;;;;;4391594;28;654516;-75
2023/02/22 11:03:17;;;;;;;14.85;3.25;;;6.30;99.90;;;;;;4378245;28;654864;-75
2023/02/22 11:06:18;;;;;;;15.07;3.60;;;6.40;99.90;;;;;;4389436;28;654411;-75
2023/02/22 11:09:09;;;;;;;11.80;3.07;;;6.30;99.90;;;;;;4378911;28;654798;-74
2023/02/22 11:12:08;;;;;;;17.10;3.60;;;6.10;99.90;;;;;;4378282;28;655293;-75
2023/02/22 11:14:55;;;;;;;12.00;3.13;;;6.20;99.90;;;;;;4364384;28;654528;-74
2023/02/22 11:17:44;;;;;;;17.33;3.37;;;6.30;99.90;;;;;;4430381;28;655219;-74
2023/02/22 11:20:34;;;;;;;17.57;3.97;;;6.10;99.90;;;;;;4380359;28;654841;-74
2023/02/22 11:23:23;;;;;;;18.10;4.03;;;6.00;99.90;;;;;;4372976;28;654647;-74
2023/02/22 11:26:13;;;;;;;16.33;3.50;;;6.00;99.90;;;;;;4388084;28;654782;-75
2023/02/22 11:29:00;;;;;;;18.17;4.00;;;5.90;99.90;;;;;;4394269;28;654364;-74
2023/02/22 11:31:49;;;;;;;13.83;4.00;;;6.10;99.90;;;;;;4401186;28;654749;-74
2023/02/22 11:34:38;;;;;;;15.27;4.23;;;5.90;99.90;;;;;;4373811;28;655197;-74
2023/02/22 11:37:31;;;;;;;19.10;4.13;;;6.20;99.90;;;;;;4389988;28;654902;-74
2023/02/22 11:40:21;;;;;;;18.27;4.47;;;6.30;99.90;;;;;;4406945;28;655745;-75
2023/02/22 11:43:11;;;;;;;16.47;4.43;;;6.50;99.90;;;;;;4385393;28;655294;-75
2023/02/22 11:46:01;;;;;;;30.33;7.00;;;6.60;99.90;;;;;;4395843;28;654944;-75
2023/02/22 11:48:58;;;;;;;20.70;6.40;;;6.70;99.90;;;;;;4395260;28;654663;-75
2023/02/22 11:51:52;;;;;;;20.50;5.50;;;6.70;99.90;;;;;;4378948;28;654958;-74
2023/02/22 11:54:48;;;;;;;23.73;6.03;;;6.60;99.90;;;;;;4389518;28;654412;-74
2023/02/22 11:57:45;;;;;;;21.27;5.53;;;6.40;99.90;;;;;;4359096;28;654380;-74
2023/02/22 12:00:46;;;;;;;27.43;6.90;;;6.60;99.90;;;;;;4361998;28;655988;-74
2023/02/22 12:03:44;;;;;;;20.80;5.40;;;6.70;99.90;;;;;;4377817;28;655045;-74
2023/02/22 12:06:39;;;;;;;18.53;5.47;;;6.60;99.90;;;;;;4389551;28;654796;-75
2023/02/22 12:09:32;;;;;;;23.40;5.53;;;6.70;99.90;;;;;;4389317;28;654495;-75
2023/02/22 12:12:23;;;;;;;25.73;6.33;;;6.90;99.90;;;;;;4366835;28;654665;-75
2023/02/22 12:15:14;;;;;;;18.00;5.30;;;6.90;99.90;;;;;;4369172;28;654744;-74
2023/02/22 12:18:04;;;;;;;20.13;5.65;;;6.60;99.90;;;;;;4390986;28;654882;-75
2023/02/22 12:20:53;;;;;;;21.50;5.80;;;6.80;99.90;;;;;;4384542;28;654970;-75
2023/02/22 12:23:44;;;;;;;18.23;5.43;;;7.00;99.90;;;;;;4398222;28;654825;-74
2023/02/22 12:26:35;;;;;;;24.37;6.00;;;7.00;99.90;;;;;;4389299;28;654426;-75
2023/02/22 12:29:26;;;;;;;24.87;5.77;;;6.90;99.90;;;;;;4370989;28;656336;-74
2023/02/22 12:32:15;;;;;;;18.37;5.33;;;7.00;99.90;;;;;;4392866;28;655736;-75
2023/02/22 12:35:05;;;;;;;23.37;6.07;;;7.00;99.90;;;;;;4395277;28;655422;-75
2023/02/22 12:37:57;;;;;;;23.70;5.90;;;7.10;99.90;;;;;;4388868;28;655372;-74
2023/02/22 12:40:46;;;;;;;20.50;7.03;;;7.00;99.90;;;;;;4378250;28;654386;-75
2023/02/22 12:43:37;;;;;;;22.80;6.37;;;6.80;99.90;;;;;;4395674;28;654744;-75
2023/02/22 12:46:27;;;;;;;23.00;6.47;;;6.70;99.90;;;;;;4376506;28;654329;-75
2023/02/22 12:49:16;;;;;;;21.30;6.30;;;6.60;99.90;;;;;;4384856;28;655237;-74
2023/02/22 12:52:07;;;;;;;22.47;6.53;;;6.60;99.90;;;;;;4392245;28;655072;-75
2023/02/22 12:54:56;;;;;;;21.50;6.37;;;6.60;99.90;;;;;;4392104;28;654694;-74
2023/02/22 12:57:47;;;;;;;24.17;6.60;;;6.70;99.90;;;;;;4393386;28;655105;-75
2023/02/22 13:00:41;;;;;;;25.30;6.47;;;7.00;99.90;;;;;;4394741;28;654568;-75
2023/02/22 13:03:33;;;;;;;21.67;6.00;;;7.00;99.90;;;;;;4392364;28;654504;-75
2023/02/22 13:06:29;;;;;;;25.97;6.83;;;7.10;99.90;;;;;;4368745;28;654211;-75
2023/02/22 13:09:42;;;;;;;29.80;7.23;;;6.90;99.90;;;;;;4378191;28;654597;-74
2023/02/22 13:12:34;;;;;;;28.73;6.75;;;6.80;99.90;;;;;;4371948;28;654671;-74
2023/02/22 13:15:24;;;;;;;27.17;6.67;;;6.80;99.90;;;;;;4374542;28;654335;-75
2023/02/22 13:18:15;;;;;;;24.47;6.20;;;6.80;99.90;;;;;;4389243;28;654421;-74
2023/02/22 13:21:05;;;;;;;23.10;6.53;;;6.60;99.90;;;;;;4376183;28;655741;-74
2023/02/22 13:23:54;;;;;;;22.10;6.33;;;6.50;99.90;;;;;;4399381;28;654900;-75
2023/02/22 13:26:43;;;;;;;18.97;6.10;;;6.40;99.90;;;;;;4390171;28;654717;-75
2023/02/22 13:29:32;;;;;;;22.60;6.10;;;6.40;99.90;;;;;;4391152;28;654213;-74
2023/02/22 13:32:26;;;;;;;20.80;5.83;;;6.60;99.90;;;;;;4416604;28;654082;-74
2023/02/22 13:35:40;;;;;;;23.93;6.30;;;6.70;99.90;;;;;;4375482;28;655340;-74
2023/02/22 13:38:57;;;;;;;22.50;5.87;;;6.80;99.90;;;;;;4393976;28;654680;-75
2023/02/22 13:41:59;;;;;;;24.07;6.53;;;6.50;99.90;;;;;;4393094;28;654637;-74
2023/02/22 13:45:20;;;;;;;22.80;6.33;;;6.40;99.90;;;;;;4396940;28;654923;-74
2023/02/22 13:48:35;;;;;;;28.53;7.03;;;6.50;99.90;;;;;;4389844;28;654614;-75
2023/02/22 13:51:37;;;;;;;27.13;6.80;;;6.40;99.90;;;;;;4352442;28;654677;-74
2023/02/22 13:54:25;;;;;;;25.60;5.83;;;6.30;99.90;;;;;;4389312;28;654311;-74
2023/02/22 13:57:20;;;;;;;21.87;6.50;;;6.20;99.90;;;;;;4375464;28;655008;-75
2023/02/22 14:00:24;;;;;;;18.37;6.57;;;6.30;99.90;;;;;;4379875;28;655059;-74
2023/02/22 14:03:34;;;;;;;21.13;6.80;;;6.50;99.90;;;;;;4354522;28;654721;-75
2023/02/22 14:06:40;;;;;;;22.60;5.93;;;6.50;99.90;;;;;;4392089;28;655314;-74
2023/02/22 14:09:45;;;;;;;25.03;6.63;;;6.20;99.90;;;;;;4398004;28;654206;-74
2023/02/22 14:12:48;;;;;;;21.57;5.83;;;6.20;99.90;;;;;;4351924;28;654700;-74
2023/02/22 14:15:35;;;;;;;22.83;5.30;;;6.20;99.90;;;;;;4378661;28;654526;-75
2023/02/22 14:18:22;;;;;;;26.53;6.60;;;6.40;99.90;;;;;;4392871;28;655080;-74
2023/02/22 14:21:11;;;;;;;26.17;6.47;;;6.30;99.90;;;;;;4392655;28;654944;-74
2023/02/22 14:24:06;;;;;;;16.40;5.80;;;6.20;99.90;;;;;;4426109;28;655827;-74
2023/02/22 14:26:55;;;;;;;23.73;7.00;;;6.30;99.90;;;;;;4391236;28;654172;-75
2023/02/22 14:29:49;;;;;;;20.93;5.90;;;6.30;99.90;;;;;;4382391;28;656468;-74
2023/02/22 14:32:37;;;;;;;20.63;5.70;;;6.20;99.90;;;;;;4377792;28;654828;-74